createdAt,value
2023-05-08T00:00:28.586Z,101312.72
2023-05-08T00:05:21.874Z,101319.16
2023-05-08T00:10:15.169Z,101314.38
2023-05-08T00:15:11.274Z,101313.31
2023-05-08T00:20:04.551Z,101299.94
2023-05-08T00:24:57.541Z,101300.56
2023-05-08T00:29:50.917Z,101304.50
2023-05-08T00:34:45.422Z,101297.94
2023-05-08T00:39:38.480Z,101302.00
2023-05-08T00:44:31.671Z,101300.81
2023-05-08T00:49:25.253Z,101309.13
2023-05-08T00:54:20.622Z,101305.81
2023-05-08T00:59:16.239Z,101298.41
2023-05-08T01:04:09.501Z,101284.31
2023-05-08T01:09:02.941Z,101270.84
2023-05-08T01:14:09.027Z,101235.06
2023-05-08T01:19:08.558Z,101269.31
2023-05-08T01:24:26.426Z,101276.72
2023-05-08T01:30:01.138Z,101287.06
2023-05-08T01:35:04.570Z,101272.84
2023-05-08T01:40:10.051Z,101269.19
2023-05-08T01:45:09.144Z,101227.06
2023-05-08T01:50:07.445Z,101241.84
2023-05-08T01:55:04.693Z,101247.69
2023-05-08T02:00:01.723Z,101258.91
2023-05-08T02:04:55.925Z,101234.13
2023-05-08T02:09:52.614Z,101257.50
2023-05-08T02:14:49.235Z,101273.00
2023-05-08T02:19:43.982Z,101292.19
2023-05-08T02:24:38.290Z,101294.00
2023-05-08T02:29:33.667Z,101316.66
2023-05-08T02:34:28.155Z,101313.56
2023-05-08T02:39:23.126Z,101329.69
2023-05-08T02:44:17.175Z,101336.69
2023-05-08T02:49:21.666Z,101338.63
2023-05-08T02:54:20.002Z,101339.31
2023-05-08T02:59:20.400Z,101322.97
2023-05-08T03:04:25.690Z,101343.59
2023-05-08T03:09:21.575Z,101343.31
2023-05-08T03:14:19.064Z,101329.56
2023-05-08T03:19:23.155Z,101350.19
2023-05-08T03:24:19.444Z,101329.53
2023-05-08T03:29:15.762Z,101352.09
2023-05-08T03:34:11.038Z,101334.66
2023-05-08T03:39:07.756Z,101333.56
2023-05-08T03:44:03.559Z,101359.09
2023-05-08T03:48:57.083Z,101385.56
2023-05-08T03:53:50.471Z,101380.34
2023-05-08T03:58:51.879Z,101374.72
2023-05-08T04:03:57.603Z,101375.78
2023-05-08T04:08:56.668Z,101368.00
2023-05-08T04:13:58.715Z,101396.66
2023-05-08T04:18:59.523Z,101396.44
2023-05-08T04:23:54.508Z,101397.84
2023-05-08T04:28:47.871Z,101403.34
2023-05-08T04:33:44.123Z,101396.19
2023-05-08T04:38:38.162Z,101396.44
2023-05-08T04:43:34.093Z,101381.03
2023-05-08T04:48:27.675Z,101379.88
2023-05-08T04:53:22.178Z,101391.94
2023-05-08T04:58:15.433Z,101392.34
2023-05-08T05:03:08.772Z,101376.69
2023-05-08T05:08:01.927Z,101397.13
2023-05-08T05:12:57.076Z,101391.31
2023-05-08T05:17:50.442Z,101393.84
2023-05-08T05:22:43.666Z,101381.91
2023-05-08T05:27:37.674Z,101360.56
2023-05-08T05:32:33.906Z,101364.16
2023-05-08T05:37:27.552Z,101376.47
2023-05-08T05:42:21.692Z,101381.22
2023-05-08T05:47:14.806Z,101375.97
2023-05-08T05:52:09.692Z,101365.47
2023-05-08T05:57:03.375Z,101380.22
2023-05-08T06:01:56.651Z,101379.72
2023-05-08T06:06:49.923Z,101363.47
2023-05-08T06:11:44.470Z,101350.34
2023-05-08T06:16:37.741Z,101359.34
2023-05-08T06:21:31.281Z,101360.59
2023-05-08T06:26:24.662Z,101351.22
2023-05-08T06:31:19.484Z,101364.38
2023-05-08T06:36:13.154Z,101369.78
2023-05-08T06:41:06.456Z,101359.75
2023-05-08T06:45:59.575Z,101353.06
2023-05-08T06:50:54.054Z,101342.28
2023-05-08T06:55:47.445Z,101338.72
2023-05-08T07:00:40.593Z,101322.22
2023-05-08T07:05:33.795Z,101347.00
2023-05-08T07:10:28.260Z,101331.50
2023-05-08T07:15:26.642Z,101337.75
2023-05-08T07:20:20.431Z,101350.78
2023-05-08T07:25:14.004Z,101356.22
2023-05-08T07:30:10.781Z,101334.28
2023-05-08T07:35:06.838Z,101357.00
2023-05-08T07:40:00.747Z,101355.22
2023-05-08T07:44:55.151Z,101362.16
2023-05-08T07:49:49.907Z,101357.47
2023-05-08T07:54:43.966Z,101358.63
2023-05-08T07:59:37.177Z,101353.16
2023-05-08T08:04:30.806Z,101358.53
2023-05-08T08:09:25.380Z,101360.50
2023-05-08T08:14:18.582Z,101359.06
2023-05-08T08:19:11.851Z,101369.44
2023-05-08T08:24:05.345Z,101369.44
2023-05-08T08:28:59.837Z,101370.38
2023-05-08T08:33:53.175Z,101371.47
2023-05-08T08:38:46.491Z,101377.47
2023-05-08T08:43:43.372Z,101375.66
2023-05-08T08:48:39.480Z,101371.91
2023-05-08T08:53:36.976Z,101379.03
2023-05-08T08:58:36.575Z,101370.22
2023-05-08T09:03:32.796Z,101366.94
2023-05-08T09:08:27.825Z,101386.25
2023-05-08T09:13:21.143Z,101377.63
2023-05-08T09:18:14.282Z,101383.44
2023-05-08T09:23:07.900Z,101367.78
2023-05-08T09:28:17.246Z,101394.56
2023-05-08T09:33:10.499Z,101398.75
2023-05-08T09:38:03.701Z,101388.50
2023-05-08T09:42:56.722Z,101413.69
2023-05-08T09:47:51.293Z,101400.09
2023-05-08T09:52:48.872Z,101377.50
2023-05-08T09:57:53.674Z,101385.91
2023-05-08T10:02:58.344Z,101398.66
2023-05-08T10:07:51.837Z,101382.84
2023-05-08T10:12:45.882Z,101403.72
2023-05-08T10:17:45.356Z,101417.72
2023-05-08T10:22:44.586Z,101433.44
2023-05-08T10:27:46.188Z,101426.63
2023-05-08T10:32:46.099Z,101418.44
2023-05-08T10:37:42.934Z,101423.38
2023-05-08T10:42:36.602Z,101442.63
2023-05-08T10:47:45.025Z,101430.59
2023-05-08T10:52:48.845Z,101436.09
2023-05-08T10:57:42.215Z,101441.09
2023-05-08T11:02:37.203Z,101451.84
2023-05-08T11:07:55.163Z,101447.50
2023-05-08T11:12:51.563Z,101437.06
2023-05-08T11:17:54.690Z,101463.72
2023-05-08T11:22:50.103Z,101480.63
2023-05-08T11:28:13.988Z,101473.34
2023-05-08T11:33:15.569Z,101469.47
2023-05-08T11:38:34.134Z,101478.03
2023-05-08T11:43:58.448Z,101454.66
2023-05-08T11:49:00.185Z,101473.56
2023-05-08T11:53:54.676Z,101493.09
2023-05-08T11:58:47.724Z,101497.66
2023-05-08T12:03:40.882Z,101507.72
2023-05-08T12:08:34.201Z,101521.34
2023-05-08T12:13:30.211Z,101508.03
2023-05-08T12:18:24.949Z,101492.34
2023-05-08T12:23:18.682Z,101487.16
2023-05-08T12:28:12.053Z,101500.66
2023-05-08T12:33:07.567Z,101483.69
2023-05-08T12:38:03.515Z,101474.41
2023-05-08T12:42:56.664Z,101505.25
2023-05-08T12:47:50.778Z,101496.41
2023-05-08T12:52:45.801Z,101498.50
2023-05-08T12:57:38.870Z,101491.75
2023-05-08T13:02:32.135Z,101506.94
2023-05-08T13:07:25.521Z,101504.75
2023-05-08T13:12:19.990Z,101481.81
2023-05-08T13:17:18.483Z,101470.78
2023-05-08T13:22:11.593Z,101510.09
2023-05-08T13:27:04.958Z,101500.97
2023-05-08T13:31:59.997Z,101494.78
2023-05-08T13:36:53.324Z,101489.13
2023-05-08T13:41:48.897Z,101497.28
2023-05-08T13:46:41.922Z,101500.13
2023-05-08T13:51:37.584Z,101484.41
2023-05-08T13:56:30.660Z,101464.50
2023-05-08T14:01:26.881Z,101480.84
2023-05-08T14:06:20.607Z,101493.28
2023-05-08T14:11:14.997Z,101463.66
2023-05-08T14:16:10.527Z,101488.19
2023-05-08T14:21:03.705Z,101496.97
2023-05-08T14:25:56.899Z,101484.69
2023-05-08T14:30:51.420Z,101505.97
2023-05-08T14:35:45.810Z,101512.22
2023-05-08T14:40:38.899Z,101516.72
2023-05-08T14:45:32.086Z,101524.59
2023-05-08T14:50:27.873Z,101532.25
2023-05-08T14:55:21.584Z,101534.75
2023-05-08T15:00:16.684Z,101550.56
2023-05-08T15:05:18.872Z,101544.28
2023-05-08T15:10:14.278Z,101551.28
2023-05-08T15:15:08.436Z,101530.41
2023-05-08T15:20:01.452Z,101550.63
2023-05-08T15:24:54.497Z,101547.41
2023-05-08T15:29:50.457Z,101558.34
2023-05-08T15:34:43.522Z,101552.50
2023-05-08T15:39:37.525Z,101555.59
2023-05-08T15:44:42.110Z,101565.44
2023-05-08T15:49:45.133Z,101560.69
2023-05-08T15:54:38.849Z,101539.53
2023-05-08T15:59:31.955Z,101570.84
2023-05-08T16:04:25.000Z,101571.81
2023-05-08T16:09:19.412Z,101580.38
2023-05-08T16:14:12.437Z,101592.56
2023-05-08T16:19:05.599Z,101606.47
2023-05-08T16:23:58.877Z,101592.84
2023-05-08T16:28:53.379Z,101575.66
2023-05-08T16:33:46.508Z,101601.47
2023-05-08T16:38:40.079Z,101602.41
2023-05-08T16:43:33.783Z,101595.91
2023-05-08T16:48:29.058Z,101613.72
2023-05-08T16:53:22.167Z,101615.19
2023-05-08T16:58:16.021Z,101612.88
2023-05-08T17:03:09.149Z,101609.53
2023-05-08T17:08:03.972Z,101605.22
2023-05-08T17:12:56.997Z,101625.38
2023-05-08T17:17:50.682Z,101615.59
2023-05-08T17:22:43.712Z,101624.94
2023-05-08T17:27:38.595Z,101635.41
2023-05-08T17:32:32.114Z,101643.88
2023-05-08T17:37:25.351Z,101628.31
2023-05-08T17:42:18.488Z,101680.88
2023-05-08T17:47:12.991Z,101686.94
2023-05-08T17:52:06.244Z,101691.53
2023-05-08T17:56:59.389Z,101690.88
2023-05-08T18:01:52.433Z,101703.03
2023-05-08T18:06:49.172Z,101692.31
2023-05-08T18:11:45.036Z,101710.22
2023-05-08T18:16:38.231Z,101718.25
2023-05-08T18:21:31.677Z,101692.69
2023-05-08T18:26:26.154Z,101716.41
2023-05-08T18:31:19.235Z,101735.38
2023-05-08T18:36:12.466Z,101715.31
2023-05-08T18:41:07.142Z,101746.91
2023-05-08T18:46:05.076Z,101752.41
2023-05-08T18:50:58.810Z,101749.97
2023-05-08T18:55:52.961Z,101724.28
2023-05-08T19:00:46.380Z,101755.19
2023-05-08T19:05:42.053Z,101744.81
2023-05-08T19:10:35.393Z,101762.03
2023-05-08T19:15:31.124Z,101762.03
2023-05-08T19:20:24.406Z,101782.19
2023-05-08T19:25:19.146Z,101790.25
2023-05-08T19:30:13.389Z,101787.53
2023-05-08T19:35:08.324Z,101792.41
2023-05-08T19:40:01.470Z,101795.19
2023-05-08T19:44:55.947Z,101797.22
2023-05-08T19:49:50.051Z,101771.34
2023-05-08T19:54:47.651Z,101809.28
2023-05-08T19:59:40.866Z,101794.03
2023-05-08T20:04:48.561Z,101800.22
2023-05-08T20:11:10.832Z,101808.53
2023-05-08T20:28:29.612Z,101619.75
2023-05-08T20:34:01.601Z,101726.78
2023-05-08T20:45:46.643Z,101804.44
2023-05-08T20:50:39.801Z,101812.38
2023-05-08T20:55:32.912Z,101822.38
2023-05-08T21:00:26.147Z,101818.41
2023-05-08T21:05:23.710Z,101825.19
2023-05-08T21:10:16.918Z,101824.94
2023-05-08T21:15:10.333Z,101835.09
2023-05-08T21:20:03.450Z,101838.06
2023-05-08T21:24:57.922Z,101853.06
2023-05-08T21:29:51.009Z,101818.34
2023-05-08T21:34:44.057Z,101854.22
2023-05-08T21:39:37.107Z,101845.44
2023-05-08T21:44:31.714Z,101843.03
2023-05-08T21:49:24.946Z,101823.88
2023-05-08T21:54:18.108Z,101823.03
2023-05-08T21:59:11.217Z,101828.50
2023-05-08T22:04:05.756Z,101847.03
2023-05-08T22:08:59.036Z,101840.22
2023-05-08T22:13:52.206Z,101834.31
2023-05-08T22:18:45.268Z,101839.63
2023-05-08T22:23:39.780Z,101827.63
2023-05-08T22:28:33.021Z,101855.94
2023-05-08T22:33:26.153Z,101807.47
2023-05-08T22:38:21.244Z,101858.06
2023-05-08T22:43:15.851Z,101844.28
2023-05-08T22:48:09.580Z,101849.25
2023-05-08T22:53:07.895Z,101849.41
2023-05-08T22:58:01.414Z,101842.75
2023-05-08T23:02:56.564Z,101822.03
2023-05-08T23:07:49.964Z,101842.53
2023-05-08T23:12:43.147Z,101820.75
2023-05-08T23:17:36.761Z,101847.34
2023-05-08T23:22:31.324Z,101846.59
2023-05-08T23:27:24.495Z,101854.41
2023-05-08T23:32:17.816Z,101859.81
2023-05-08T23:37:10.925Z,101855.66
2023-05-08T23:42:07.870Z,101853.22
2023-05-08T23:47:01.326Z,101851.38
2023-05-08T23:51:54.541Z,101852.31
2023-05-08T23:56:47.632Z,101844.78
